Time;durP1;ratioP1;P1;durP2;ratioP2;P2;SDS_P1;SDS_P2;PMS_P1;PMS_P2;Temp;Humidity;BMP_temperature;BMP_pressure;BME280_temperature;BME280_humidity;BME280_pressure;Samples;Min_cycle;Max_cycle;Signal;HPM_P1;HPM_P2
2021/09/28 00:02:50;;;;;;;2.47;1.83;;;17.00;85.00;;;;;;6272819;28;20562;-77
2021/09/28 00:05:52;;;;;;;2.45;1.70;;;17.00;84.60;;;;;;6298536;23;20532;-81
2021/09/28 00:08:55;;;;;;;8.25;2.15;;;16.90;84.40;;;;;;6300505;28;20493;-81
2021/09/28 00:11:57;;;;;;;2.05;1.70;;;16.90;84.60;;;;;;6293661;28;20524;-81
2021/09/28 00:14:59;;;;;;;4.25;1.45;;;16.90;84.80;;;;;;6275583;28;20484;-80
2021/09/28 00:18:00;;;;;;;3.10;1.40;;;16.90;84.60;;;;;;6275833;28;20421;-80
2021/09/28 00:21:02;;;;;;;3.58;1.63;;;16.80;84.80;;;;;;6275606;28;21117;-81
2021/09/28 00:24:06;;;;;;;3.00;1.40;;;16.70;84.80;;;;;;6276194;28;20520;-81
2021/09/28 00:27:07;;;;;;;4.20;1.70;;;16.60;84.90;;;;;;6275104;28;20519;-81
2021/09/28 00:30:10;;;;;;;4.07;1.83;;;16.60;85.20;;;;;;6275280;28;20500;-81
2021/09/28 00:33:12;;;;;;;4.43;1.80;;;16.50;84.90;;;;;;6275358;28;20492;-81
2021/09/28 00:36:14;;;;;;;2.30;1.52;;;16.50;85.30;;;;;;6276375;28;20468;-81
2021/09/28 00:39:17;;;;;;;2.92;1.95;;;16.40;85.10;;;;;;6275270;28;20941;-81
2021/09/28 00:42:19;;;;;;;3.55;2.00;;;16.20;85.40;;;;;;6275406;28;20421;-81
2021/09/28 00:45:21;;;;;;;6.70;2.10;;;16.10;85.70;;;;;;6275915;28;21006;-81
2021/09/28 00:48:23;;;;;;;2.13;1.63;;;16.10;86.10;;;;;;6276448;28;20522;-81
2021/09/28 00:51:25;;;;;;;4.60;2.40;;;16.00;86.10;;;;;;6276226;28;20509;-82
2021/09/28 00:54:28;;;;;;;5.07;2.30;;;15.90;86.30;;;;;;6275685;28;20476;-81
2021/09/28 00:57:30;;;;;;;5.07;2.15;;;15.90;86.40;;;;;;6274571;28;20443;-81
2021/09/28 01:00:32;;;;;;;5.45;2.03;;;15.90;86.30;;;;;;6275529;28;20440;-81
2021/09/28 01:03:34;;;;;;;7.97;2.80;;;15.90;86.60;;;;;;6275242;28;20448;-81
2021/09/28 01:06:36;;;;;;;5.38;2.70;;;15.90;86.60;;;;;;6274573;28;20552;-81
2021/09/28 01:09:41;;;;;;;4.20;2.30;;;15.80;86.60;;;;;;6275197;28;20464;-81
2021/09/28 01:12:43;;;;;;;4.82;2.25;;;15.80;86.60;;;;;;6270976;28;20520;-81
2021/09/28 01:15:48;;;;;;;3.17;1.90;;;15.70;86.60;;;;;;6271270;28;20520;-81
2021/09/28 01:18:49;;;;;;;3.92;2.20;;;15.70;86.50;;;;;;6270548;28;20551;-81
2021/09/28 01:21:53;;;;;;;5.00;3.13;;;15.70;86.70;;;;;;6301271;28;20411;-81
2021/09/28 01:24:54;;;;;;;3.97;2.20;;;15.70;86.50;;;;;;6318104;28;20453;-82
2021/09/28 01:27:56;;;;;;;5.38;2.33;;;15.60;86.50;;;;;;6320194;28;20429;-81
2021/09/28 01:30:59;;;;;;;6.47;2.40;;;15.60;86.50;;;;;;6320415;28;20484;-81
2021/09/28 01:34:01;;;;;;;7.30;2.70;;;15.60;86.60;;;;;;6320329;28;20934;-81
2021/09/28 01:37:04;;;;;;;6.27;2.63;;;15.50;86.70;;;;;;6321238;28;20437;-81
2021/09/28 01:40:07;;;;;;;7.97;2.50;;;15.50;87.10;;;;;;6321105;28;20526;-82
2021/09/28 01:43:10;;;;;;;7.38;2.88;;;15.40;86.90;;;;;;6320967;28;20496;-81
2021/09/28 01:46:12;;;;;;;5.87;2.60;;;15.40;86.90;;;;;;6320820;28;20494;-81
2021/09/28 01:49:16;;;;;;;5.93;2.80;;;15.40;87.00;;;;;;6320443;28;20915;-81
2021/09/28 01:52:19;;;;;;;6.95;2.42;;;15.30;87.00;;;;;;6321401;28;20922;-81
2021/09/28 01:55:21;;;;;;;5.75;2.60;;;15.30;86.60;;;;;;6320787;28;20494;-81
2021/09/28 01:58:23;;;;;;;9.07;2.72;;;15.30;86.80;;;;;;6320596;28;20756;-80
2021/09/28 02:01:25;;;;;;;6.47;2.53;;;15.20;86.80;;;;;;6322418;28;20481;-80
2021/09/28 02:04:27;;;;;;;5.03;2.50;;;15.10;86.60;;;;;;6326542;28;20458;-81
2021/09/28 02:07:30;;;;;;;8.40;3.03;;;15.10;86.60;;;;;;6326047;28;20517;-81
2021/09/28 02:10:32;;;;;;;8.23;3.33;;;15.00;86.80;;;;;;6325311;28;20448;-81
2021/09/28 02:13:34;;;;;;;6.63;2.57;;;15.00;86.80;;;;;;6325157;28;20535;-81
2021/09/28 02:16:36;;;;;;;5.20;2.45;;;15.00;86.80;;;;;;6325650;28;20429;-81
2021/09/28 02:19:38;;;;;;;7.95;2.78;;;15.00;86.80;;;;;;6324980;28;20414;-81
2021/09/28 02:22:41;;;;;;;8.07;2.95;;;14.80;86.70;;;;;;6326061;28;20405;-81
2021/09/28 02:25:43;;;;;;;7.65;3.30;;;14.90;86.50;;;;;;6325871;28;20445;-81
2021/09/28 02:28:44;;;;;;;7.32;3.03;;;14.80;86.60;;;;;;6326179;28;20525;-81
2021/09/28 02:31:46;;;;;;;4.20;3.00;;;14.70;86.30;;;;;;6326934;28;20425;-82
2021/09/28 02:34:48;;;;;;;5.10;2.67;;;14.70;86.20;;;;;;6326161;28;20842;-81
2021/09/28 02:37:51;;;;;;;17.50;4.07;;;14.60;86.50;;;;;;6326628;28;20440;-81
2021/09/28 02:40:53;;;;;;;7.15;3.50;;;14.60;86.90;;;;;;6329568;28;20456;-81
2021/09/28 02:43:55;;;;;;;10.37;3.30;;;14.50;86.50;;;;;;6331773;28;20434;-81
2021/09/28 02:46:57;;;;;;;8.00;3.92;;;14.50;86.80;;;;;;6331394;28;20963;-81
2021/09/28 02:49:59;;;;;;;7.07;3.60;;;14.40;86.50;;;;;;6346181;28;20833;-80
2021/09/28 02:53:02;;;;;;;6.72;3.97;;;14.40;86.80;;;;;;6325018;28;20480;-81
2021/09/28 02:56:05;;;;;;;18.33;5.35;;;14.40;86.60;;;;;;6324511;28;20505;-80
2021/09/28 02:59:06;;;;;;;9.10;3.70;;;14.30;86.50;;;;;;6324066;28;20506;-81
2021/09/28 03:02:08;;;;;;;7.35;3.80;;;14.30;86.90;;;;;;6324462;28;20497;-81
2021/09/28 03:05:10;;;;;;;8.13;4.13;;;14.20;87.00;;;;;;6324059;28;20489;-81
2021/09/28 03:08:14;;;;;;;7.10;4.45;;;14.30;87.20;;;;;;6325310;28;20567;-81
2021/09/28 03:11:15;;;;;;;8.23;4.78;;;14.20;87.00;;;;;;6323998;28;20495;-80
2021/09/28 03:14:17;;;;;;;8.77;4.78;;;14.20;87.10;;;;;;6324156;28;20984;-80
2021/09/28 03:17:19;;;;;;;18.17;8.23;;;14.20;87.30;;;;;;6324061;28;20441;-81
2021/09/28 03:20:21;;;;;;;7.72;4.30;;;14.20;88.10;;;;;;6324794;28;20471;-81
2021/09/28 03:23:24;;;;;;;10.40;4.18;;;14.20;88.10;;;;;;6324564;28;20434;-80
2021/09/28 03:26:26;;;;;;;7.55;4.25;;;14.20;87.30;;;;;;6323817;28;20486;-81
2021/09/28 03:29:28;;;;;;;9.82;4.50;;;14.20;86.80;;;;;;6323389;28;20551;-80
2021/09/28 03:32:30;;;;;;;8.10;4.55;;;14.10;87.10;;;;;;6325205;28;20942;-81
2021/09/28 03:35:32;;;;;;;8.77;4.80;;;14.10;87.10;;;;;;6324286;28;20497;-81
2021/09/28 03:38:35;;;;;;;7.27;4.87;;;14.10;87.30;;;;;;6324629;28;20445;-80
2021/09/28 03:41:37;;;;;;;10.93;5.83;;;14.00;87.00;;;;;;6324285;28;20503;-80
2021/09/28 03:44:39;;;;;;;8.50;5.40;;;14.00;87.00;;;;;;6326985;28;20449;-80
2021/09/28 03:47:41;;;;;;;10.00;5.23;;;14.00;87.10;;;;;;6324778;28;20424;-81
2021/09/28 03:50:43;;;;;;;12.45;5.40;;;13.90;87.80;;;;;;6323598;28;20417;-81
2021/09/28 03:53:50;;;;;;;11.48;6.72;;;13.90;87.20;;;;;;6324173;28;20438;-81
2021/09/28 03:56:52;;;;;;;9.13;6.20;;;13.90;87.30;;;;;;6323893;28;20434;-81
2021/09/28 03:59:55;;;;;;;12.27;5.82;;;13.80;87.20;;;;;;6325994;28;21006;-81
2021/09/28 04:02:57;;;;;;;12.68;5.75;;;13.90;87.30;;;;;;6326420;28;20438;-80
2021/09/28 04:05:59;;;;;;;10.80;5.47;;;13.90;87.60;;;;;;6325964;28;20418;-81
2021/09/28 04:09:02;;;;;;;11.05;5.57;;;13.80;87.50;;;;;;6326011;28;20508;-81
2021/09/28 04:12:06;;;;;;;10.27;6.07;;;13.80;87.10;;;;;;6326353;28;20517;-81
2021/09/28 04:15:08;;;;;;;9.95;4.88;;;13.80;87.30;;;;;;6325722;28;20441;-81
2021/09/28 04:18:12;;;;;;;12.63;5.63;;;13.80;87.10;;;;;;6325889;28;20442;-80
2021/09/28 04:21:14;;;;;;;12.10;5.88;;;13.80;87.20;;;;;;6325478;28;20437;-80
2021/09/28 04:24:18;;;;;;;10.75;6.07;;;13.80;87.40;;;;;;6325958;28;20525;-81
2021/09/28 04:27:20;;;;;;;10.10;5.40;;;13.80;87.50;;;;;;6325817;28;20414;-81
2021/09/28 04:30:22;;;;;;;14.13;5.23;;;13.70;87.20;;;;;;6325682;28;20487;-81
2021/09/28 04:33:24;;;;;;;10.23;4.47;;;13.70;87.40;;;;;;6326201;28;20552;-81
2021/09/28 04:36:28;;;;;;;7.18;4.78;;;13.80;87.90;;;;;;6325590;28;20434;-81
2021/09/28 04:39:31;;;;;;;12.10;5.97;;;13.70;87.10;;;;;;6325483;28;20420;-81
2021/09/28 04:42:33;;;;;;;13.45;5.70;;;13.70;87.10;;;;;;6325709;28;20437;-81
2021/09/28 04:45:35;;;;;;;12.48;5.38;;;13.70;87.00;;;;;;6326355;28;20448;-80
2021/09/28 04:48:37;;;;;;;9.27;5.78;;;13.70;87.30;;;;;;6325858;28;20516;-81
2021/09/28 04:51:39;;;;;;;10.05;5.63;;;13.60;87.30;;;;;;6325344;28;20854;-79
2021/09/28 04:54:42;;;;;;;12.55;6.15;;;13.60;87.30;;;;;;6325383;28;20497;-79
2021/09/28 04:57:44;;;;;;;13.25;5.80;;;13.60;86.70;;;;;;6325694;28;20518;-79
2021/09/28 05:00:45;;;;;;;11.05;4.95;;;13.60;86.70;;;;;;6325696;28;20521;-79
2021/09/28 05:03:47;;;;;;;9.07;6.30;;;13.60;86.40;;;;;;6325176;28;20489;-79
2021/09/28 05:06:49;;;;;;;9.52;5.93;;;13.50;86.70;;;;;;6326143;28;20414;-79
2021/09/28 05:09:52;;;;;;;9.13;5.77;;;13.50;86.50;;;;;;6325163;28;20470;-79
2021/09/28 05:12:54;;;;;;;11.07;5.70;;;13.50;86.30;;;;;;6325109;28;20524;-79
2021/09/28 05:15:56;;;;;;;10.95;6.70;;;13.40;86.80;;;;;;6325690;28;20429;-79
2021/09/28 05:18:58;;;;;;;12.73;6.37;;;13.50;87.80;;;;;;6325222;28;20501;-79
2021/09/28 05:22:00;;;;;;;10.52;5.55;;;13.50;87.20;;;;;;6325311;28;20524;-79
2021/09/28 05:25:03;;;;;;;9.20;5.90;;;13.40;86.80;;;;;;6324883;28;20816;-79
2021/09/28 05:28:05;;;;;;;10.32;5.22;;;13.50;86.90;;;;;;6325457;28;20578;-79
2021/09/28 05:31:07;;;;;;;8.65;5.30;;;13.50;86.60;;;;;;6324388;28;20421;-78
2021/09/28 05:34:09;;;;;;;9.05;4.63;;;13.50;86.60;;;;;;6324923;28;20810;-79
2021/09/28 05:37:11;;;;;;;9.47;4.47;;;13.50;86.50;;;;;;6324840;28;20417;-80
2021/09/28 05:40:14;;;;;;;9.48;4.60;;;13.50;86.50;;;;;;6326015;28;20487;-79
2021/09/28 05:43:16;;;;;;;8.93;4.45;;;13.50;86.40;;;;;;6325694;28;20512;-79
2021/09/28 05:46:18;;;;;;;8.45;4.28;;;13.60;86.10;;;;;;6324980;28;20938;-79
2021/09/28 05:49:19;;;;;;;11.82;4.30;;;13.70;86.10;;;;;;6324994;28;20930;-79
2021/09/28 05:52:21;;;;;;;7.38;5.45;;;13.80;85.70;;;;;;6325586;28;20500;-79
2021/09/28 05:55:25;;;;;;;5.32;4.15;;;13.90;85.60;;;;;;6324483;28;20414;-79
2021/09/28 05:58:27;;;;;;;8.63;4.18;;;14.00;85.10;;;;;;6324957;28;20872;-80
2021/09/28 06:01:28;;;;;;;6.72;4.03;;;14.00;84.50;;;;;;6325170;28;20426;-80
2021/09/28 06:04:30;;;;;;;11.55;4.10;;;14.00;84.20;;;;;;6326328;28;20493;-80
2021/09/28 06:07:32;;;;;;;4.68;3.40;;;14.10;84.40;;;;;;6293474;22;20494;-76
2021/09/28 06:10:35;;;;;;;8.82;5.05;;;14.20;83.90;;;;;;6269302;28;20460;-76
2021/09/28 06:13:37;;;;;;;7.50;4.05;;;14.30;84.80;;;;;;6269076;28;20504;-76
2021/09/28 06:16:39;;;;;;;8.10;4.43;;;14.40;84.20;;;;;;6256449;28;20435;-76
2021/09/28 06:19:41;;;;;;;5.03;3.42;;;14.40;83.90;;;;;;6244583;28;20450;-77
2021/09/28 06:22:43;;;;;;;5.72;3.90;;;14.50;83.70;;;;;;6244596;28;20426;-76
2021/09/28 06:25:46;;;;;;;7.32;4.75;;;14.50;84.20;;;;;;6244615;28;20497;-76
2021/09/28 06:28:48;;;;;;;8.03;5.30;;;14.60;83.60;;;;;;6243798;28;20438;-76
2021/09/28 06:31:50;;;;;;;6.97;3.97;;;14.60;83.80;;;;;;6244704;28;20910;-76
2021/09/28 06:34:51;;;;;;;8.50;5.53;;;14.70;83.50;;;;;;6244193;28;20501;-76
2021/09/28 06:37:54;;;;;;;9.32;6.03;;;14.90;83.30;;;;;;6244094;28;21172;-76
2021/09/28 06:40:58;;;;;;;10.18;5.80;;;15.00;83.70;;;;;;6243935;28;20935;-76
2021/09/28 06:44:00;;;;;;;10.02;5.03;;;15.10;83.50;;;;;;6245147;28;20431;-76
2021/09/28 06:47:01;;;;;;;7.05;5.10;;;15.20;82.80;;;;;;6244237;28;20492;-76
2021/09/28 06:50:04;;;;;;;12.50;5.68;;;15.30;82.70;;;;;;6244086;28;20508;-76
2021/09/28 06:53:05;;;;;;;7.88;4.85;;;15.40;82.40;;;;;;6243686;28;20802;-76
2021/09/28 06:56:09;;;;;;;10.80;5.05;;;15.60;82.10;;;;;;6242402;28;20467;-76
2021/09/28 06:59:11;;;;;;;12.23;5.22;;;15.70;82.30;;;;;;6257970;28;20934;-76
2021/09/28 07:02:12;;;;;;;6.80;4.45;;;15.90;82.10;;;;;;6270829;28;20444;-76
2021/09/28 07:05:15;;;;;;;9.65;5.53;;;16.00;80.00;;;;;;6268798;28;20480;-76
2021/09/28 07:08:17;;;;;;;10.98;4.80;;;16.20;80.70;;;;;;6269406;28;20556;-76
2021/09/28 07:11:20;;;;;;;8.20;4.80;;;16.50;79.10;;;;;;6268458;28;20548;-76
2021/09/28 07:14:22;;;;;;;8.93;5.63;;;16.70;78.40;;;;;;6268910;28;20444;-76
2021/09/28 07:17:24;;;;;;;11.75;4.53;;;16.70;79.80;;;;;;6268888;28;20430;-77
2021/09/28 07:20:26;;;;;;;10.75;5.75;;;16.80;78.00;;;;;;6261513;28;20568;-77
2021/09/28 07:23:28;;;;;;;7.50;3.90;;;17.00;77.40;;;;;;6245728;28;20576;-77
2021/09/28 07:26:31;;;;;;;8.90;5.33;;;17.20;76.60;;;;;;6258142;28;20472;-76
2021/09/28 07:29:34;;;;;;;9.45;4.82;;;17.50;75.80;;;;;;6268043;28;20528;-76
2021/09/28 07:32:36;;;;;;;10.85;4.53;;;17.60;76.80;;;;;;6273954;28;20474;-76
2021/09/28 07:35:37;;;;;;;8.60;4.47;;;17.60;74.60;;;;;;6275363;28;20552;-77
2021/09/28 07:38:40;;;;;;;11.10;4.50;;;17.60;75.20;;;;;;6276772;28;21020;-78
2021/09/28 07:41:43;;;;;;;8.02;4.30;;;17.90;75.60;;;;;;6277237;28;20425;-77
2021/09/28 07:44:46;;;;;;;9.60;3.87;;;18.10;73.80;;;;;;6275620;28;20508;-78
2021/09/28 07:47:49;;;;;;;7.63;5.03;;;18.20;73.40;;;;;;6276265;28;20512;-77
2021/09/28 07:50:51;;;;;;;9.80;4.30;;;18.10;73.90;;;;;;6272389;28;20966;-76
2021/09/28 07:53:53;;;;;;;5.88;4.40;;;17.90;73.30;;;;;;6273283;28;20547;-76
2021/09/28 07:56:58;;;;;;;9.67;5.30;;;17.70;72.70;;;;;;6258569;28;20442;-76
2021/09/28 08:00:00;;;;;;;7.90;4.88;;;17.60;73.70;;;;;;6270667;28;20481;-76
2021/09/28 08:03:03;;;;;;;8.38;4.75;;;17.50;75.10;;;;;;6272136;28;20507;-76
2021/09/28 08:06:05;;;;;;;12.63;4.68;;;17.60;74.40;;;;;;6272044;28;20997;-76
2021/09/28 08:09:06;;;;;;;5.80;3.85;;;17.60;76.30;;;;;;6271699;28;20493;-76
2021/09/28 08:12:11;;;;;;;7.28;3.83;;;18.30;72.20;;;;;;6272668;28;20520;-76
2021/09/28 08:15:12;;;;;;;9.15;4.30;;;19.40;69.70;;;;;;6271647;28;20934;-76
2021/09/28 08:18:14;;;;;;;8.27;3.87;;;19.80;67.00;;;;;;6272048;28;20451;-76
2021/09/28 08:21:16;;;;;;;7.15;4.20;;;19.80;65.70;;;;;;6271569;28;20429;-76
2021/09/28 08:24:18;;;;;;;6.32;3.83;;;19.80;65.60;;;;;;6272339;28;20522;-76
2021/09/28 08:30:41;;;;;;;6.72;4.40;;;19.70;65.80;;;;;;6271500;28;20409;-76
2021/09/28 08:33:44;;;;;;;9.52;4.93;;;19.50;66.00;;;;;;6271407;28;20413;-76
2021/09/28 08:36:47;;;;;;;9.43;4.30;;;19.20;65.80;;;;;;6271061;28;20437;-76
2021/09/28 08:39:48;;;;;;;7.65;4.32;;;19.10;67.00;;;;;;6272271;28;20898;-76
2021/09/28 08:42:55;;;;;;;6.47;3.70;;;19.40;66.60;;;;;;6271660;28;20445;-76
2021/09/28 08:45:57;;;;;;;8.68;3.80;;;19.90;64.90;;;;;;6274714;28;20436;-77
2021/09/28 08:48:59;;;;;;;5.93;3.47;;;20.50;62.30;;;;;;6272931;28;20430;-76
2021/09/28 08:52:03;;;;;;;7.60;2.90;;;20.90;60.50;;;;;;6276330;28;20492;-77
2021/09/28 08:55:06;;;;;;;5.30;3.28;;;21.30;59.40;;;;;;6266964;28;20530;-76
2021/09/28 08:58:17;;;;;;;8.90;3.53;;;21.90;57.60;;;;;;6263200;28;20926;-77
2021/09/28 09:01:19;;;;;;;6.27;2.90;;;22.60;55.50;;;;;;6272793;28;20950;-76
2021/09/28 09:04:23;;;;;;;8.02;2.50;;;23.10;54.50;;;;;;6271302;28;20440;-76
2021/09/28 09:07:26;;;;;;;7.10;2.67;;;23.50;53.50;;;;;;6271155;28;20818;-76
2021/09/28 09:10:30;;;;;;;4.47;1.90;;;23.60;51.50;;;;;;6256359;28;20422;-76
2021/09/28 09:13:35;;;;;;;5.68;2.45;;;23.90;51.60;;;;;;6249070;28;20490;-78
2021/09/28 09:16:37;;;;;;;6.53;2.50;;;24.10;49.20;;;;;;6247354;28;20470;-76
2021/09/28 09:19:39;;;;;;;5.45;2.50;;;24.30;50.60;;;;;;6245534;28;20433;-76
2021/09/28 09:22:41;;;;;;;3.92;2.08;;;24.60;48.70;;;;;;6245297;28;20836;-77
2021/09/28 09:25:43;;;;;;;7.10;2.22;;;24.70;47.60;;;;;;6252015;28;20484;-78
2021/09/28 09:28:49;;;;;;;5.87;2.40;;;24.80;47.70;;;;;;6265406;28;20524;-77
2021/09/28 09:31:54;;;;;;;7.70;2.28;;;24.90;47.70;;;;;;6259095;28;20934;-78
2021/09/28 09:34:56;;;;;;;6.85;2.90;;;25.00;47.80;;;;;;6264899;28;20914;-79
2021/09/28 09:38:07;;;;;;;6.13;2.20;;;24.60;48.10;;;;;;6274680;28;20634;-77
2021/09/28 09:41:09;;;;;;;6.20;1.98;;;23.90;49.00;;;;;;6275098;28;20496;-79
2021/09/28 09:44:14;;;;;;;7.55;1.95;;;23.20;49.90;;;;;;6275503;28;20458;-79
2021/09/28 09:47:27;;;;;;;3.75;1.90;;;22.90;51.70;;;;;;6275770;28;20492;-78
2021/09/28 09:50:31;;;;;;;7.63;2.58;;;23.00;50.30;;;;;;6271627;28;20490;-77
2021/09/28 09:53:34;;;;;;;9.40;3.53;;;22.80;51.20;;;;;;6273892;28;20496;-77
2021/09/28 09:56:45;;;;;;;6.82;2.10;;;22.90;52.00;;;;;;6263098;28;20438;-77
2021/09/28 09:59:48;;;;;;;7.13;2.33;;;23.00;50.90;;;;;;6269040;28;20961;-77
2021/09/28 10:02:50;;;;;;;5.00;1.83;;;22.90;50.40;;;;;;6270937;28;20505;-77
2021/09/28 10:05:52;;;;;;;7.93;2.40;;;22.80;50.30;;;;;;6269969;28;20418;-77
2021/09/28 10:08:54;;;;;;;5.82;1.90;;;22.90;50.00;;;;;;6272411;28;20524;-77
2021/09/28 10:11:57;;;;;;;5.03;1.40;;;23.20;49.00;;;;;;6273045;28;20567;-77
2021/09/28 10:15:11;;;;;;;9.18;2.28;;;23.60;46.90;;;;;;6272096;28;20421;-77
2021/09/28 10:18:38;;;;;;;5.15;1.88;;;23.80;45.70;;;;;;6270829;28;20410;-77
2021/09/28 10:21:44;;;;;;;3.70;1.80;;;23.80;45.20;;;;;;6270786;28;20485;-77
2021/09/28 10:24:46;;;;;;;4.07;1.70;;;23.80;45.50;;;;;;6267051;28;20442;-77
2021/09/28 10:27:48;;;;;;;3.55;1.30;;;23.90;45.30;;;;;;6258631;28;20436;-76
2021/09/28 10:30:52;;;;;;;7.03;1.52;;;24.10;45.20;;;;;;6268759;28;20502;-77
2021/09/28 10:33:55;;;;;;;5.30;2.03;;;24.40;43.60;;;;;;6253019;28;20506;-77
2021/09/28 10:36:56;;;;;;;6.18;1.70;;;24.80;44.50;;;;;;6245124;28;20434;-76
2021/09/28 10:39:58;;;;;;;6.25;1.48;;;24.90;42.30;;;;;;6243955;28;20439;-77
2021/09/28 10:43:02;;;;;;;6.13;1.92;;;25.00;42.30;;;;;;6246456;28;20480;-77
2021/09/28 10:46:05;;;;;;;4.03;1.40;;;25.10;43.60;;;;;;6246042;28;20415;-77
2021/09/28 10:49:23;;;;;;;4.95;1.60;;;25.30;43.20;;;;;;6246603;28;21205;-77
2021/09/28 10:52:37;;;;;;;6.85;1.83;;;25.50;43.90;;;;;;6246604;28;20438;-77
2021/09/28 10:55:41;;;;;;;4.80;1.52;;;25.40;40.50;;;;;;6249854;28;20417;-76
2021/09/28 10:58:56;;;;;;;6.90;1.70;;;25.40;40.90;;;;;;6262028;28;20409;-77
2021/09/28 11:02:10;;;;;;;5.87;1.70;;;25.80;41.60;;;;;;6273138;28;20413;-77
2021/09/28 11:05:33;;;;;;;3.45;1.08;;;26.00;40.90;;;;;;6274854;28;20447;-77
2021/09/28 11:08:36;;;;;;;3.63;1.42;;;25.80;39.10;;;;;;6274665;28;20421;-77
2021/09/28 11:11:39;;;;;;;2.33;1.40;;;24.60;40.70;;;;;;6273971;28;20421;-77
2021/09/28 11:14:41;;;;;;;5.43;1.77;;;23.60;41.60;;;;;;6275486;28;20417;-76
2021/09/28 11:17:44;;;;;;;3.92;1.45;;;23.20;43.90;;;;;;6274323;28;20450;-76
2021/09/28 11:20:46;;;;;;;4.88;1.90;;;23.30;44.10;;;;;;6273546;28;20435;-77
2021/09/28 11:23:52;;;;;;;3.63;1.35;;;23.40;43.40;;;;;;6274864;28;20459;-77
2021/09/28 11:27:01;;;;;;;4.45;1.80;;;23.80;44.00;;;;;;6259183;28;20415;-75
2021/09/28 11:30:14;;;;;;;3.53;1.60;;;24.10;43.70;;;;;;6271334;28;20410;-76
2021/09/28 11:33:18;;;;;;;4.97;2.27;;;24.50;43.20;;;;;;6269941;28;20490;-76
2021/09/28 11:36:19;;;;;;;5.65;1.88;;;24.70;42.10;;;;;;6247156;28;20572;-76
2021/09/28 11:39:21;;;;;;;3.97;1.58;;;24.50;44.40;;;;;;6248081;28;20421;-76
2021/09/28 11:42:32;;;;;;;4.90;1.63;;;24.30;43.60;;;;;;6248342;28;20473;-76
2021/09/28 11:45:33;;;;;;;7.20;2.17;;;24.00;44.80;;;;;;6247859;28;20443;-75
2021/09/28 11:48:40;;;;;;;4.07;1.90;;;24.10;44.20;;;;;;6247796;28;20914;-76
2021/09/28 11:51:44;;;;;;;3.13;1.63;;;24.60;43.50;;;;;;6247379;28;20417;-76
2021/09/28 11:54:47;;;;;;;3.20;1.58;;;24.90;42.40;;;;;;6247824;28;20411;-75
2021/09/28 11:57:50;;;;;;;4.13;1.38;;;24.90;40.60;;;;;;6260753;28;20562;-76
2021/09/28 12:00:51;;;;;;;3.85;1.73;;;24.50;41.90;;;;;;6272281;28;20567;-76
2021/09/28 12:04:21;;;;;;;4.28;1.42;;;24.10;44.00;;;;;;6272681;28;20514;-75
2021/09/28 12:07:57;;;;;;;6.28;1.48;;;23.80;44.50;;;;;;6295336;23;20510;-85
2021/09/28 12:10:45;;;;;;;4.65;1.40;;;23.70;43.40;;;;;;6303096;28;20923;-81
2021/09/28 12:13:48;;;;;;;4.70;1.50;;;23.50;43.50;;;;;;6301340;28;20472;-81
2021/09/28 12:16:50;;;;;;;3.65;1.10;;;23.50;43.80;;;;;;6298599;28;20433;-82
2021/09/28 12:19:55;;;;;;;4.50;1.52;;;23.40;43.60;;;;;;6280333;28;20514;-82
2021/09/28 12:23:01;;;;;;;3.47;1.38;;;23.30;43.90;;;;;;6302423;28;20501;-82
2021/09/28 12:26:03;;;;;;;3.78;1.40;;;23.30;44.10;;;;;;6281369;28;20471;-81
2021/09/28 12:29:13;;;;;;;4.50;1.90;;;23.30;42.90;;;;;;6271056;28;20471;-82
2021/09/28 12:32:20;;;;;;;3.65;1.45;;;23.20;43.10;;;;;;6272980;28;20429;-82
2021/09/28 12:35:30;;;;;;;6.25;1.90;;;23.10;45.10;;;;;;6271117;28;20547;-81
2021/09/28 12:38:32;;;;;;;2.67;1.37;;;23.10;44.60;;;;;;6271594;28;20582;-83
2021/09/28 12:41:33;;;;;;;4.80;2.08;;;22.90;43.80;;;;;;6273068;28;20505;-82
2021/09/28 12:44:40;;;;;;;4.45;2.03;;;22.70;43.80;;;;;;6272850;28;20911;-82
2021/09/28 12:47:43;;;;;;;3.72;1.73;;;22.60;46.00;;;;;;6272602;28;20543;-82
2021/09/28 12:50:46;;;;;;;6.90;1.70;;;22.80;45.20;;;;;;6271584;28;20962;-82
2021/09/28 12:53:49;;;;;;;6.78;2.25;;;22.80;45.60;;;;;;6272267;28;20469;-83
2021/09/28 12:56:51;;;;;;;4.75;1.85;;;22.70;45.20;;;;;;6271498;28;20514;-84
2021/09/28 12:59:53;;;;;;;8.77;2.15;;;22.70;46.40;;;;;;6271591;28;20511;-85
2021/09/28 13:02:55;;;;;;;5.38;2.15;;;22.60;45.60;;;;;;6271216;28;20926;-84
2021/09/28 13:06:00;;;;;;;6.30;2.10;;;22.60;46.60;;;;;;6271704;28;20418;-84
2021/09/28 13:09:02;;;;;;;4.47;2.03;;;22.60;46.10;;;;;;6270312;28;21213;-85
2021/09/28 13:12:04;;;;;;;4.70;2.45;;;22.70;45.20;;;;;;6272363;28;20512;-85
2021/09/28 13:15:07;;;;;;;4.20;1.70;;;22.70;45.50;;;;;;6271796;28;20961;-85
2021/09/28 13:18:09;;;;;;;3.30;1.60;;;22.60;45.70;;;;;;6270980;28;20421;-85
2021/09/28 13:21:12;;;;;;;2.50;1.88;;;22.60;44.90;;;;;;6270925;28;20429;-84
2021/09/28 13:24:14;;;;;;;3.97;1.70;;;22.50;45.70;;;;;;6271227;28;20570;-84
2021/09/28 13:27:18;;;;;;;6.97;1.80;;;22.50;45.80;;;;;;6263170;28;21291;-84
2021/09/28 13:30:20;;;;;;;3.95;1.77;;;22.40;45.70;;;;;;6271691;28;20493;-84
2021/09/28 13:33:24;;;;;;;2.50;1.42;;;22.30;46.30;;;;;;6289966;28;20476;-84
2021/09/28 13:36:27;;;;;;;4.07;1.75;;;22.40;45.50;;;;;;6284884;28;20441;-85
2021/09/28 13:39:29;;;;;;;4.70;2.28;;;22.30;46.00;;;;;;6273558;28;20413;-85
2021/09/28 13:42:31;;;;;;;7.18;2.00;;;22.10;46.00;;;;;;6275385;28;20475;-84
2021/09/28 13:45:37;;;;;;;4.45;1.63;;;22.00;46.60;;;;;;6277281;28;20918;-84
2021/09/28 13:48:39;;;;;;;5.18;2.83;;;22.00;46.80;;;;;;6281250;28;20441;-84
2021/09/28 13:51:42;;;;;;;3.03;1.80;;;21.90;47.70;;;;;;6279387;28;20958;-83
2021/09/28 13:54:44;;;;;;;4.25;1.90;;;21.90;47.60;;;;;;6277828;28;20471;-82
2021/09/28 13:57:45;;;;;;;2.78;1.60;;;21.90;46.90;;;;;;6275955;28;20425;-83
2021/09/28 14:00:48;;;;;;;4.30;1.77;;;21.70;46.60;;;;;;6273798;28;20557;-83
2021/09/28 14:03:49;;;;;;;4.38;1.67;;;21.50;47.40;;;;;;6272950;28;20487;-83
2021/09/28 14:06:53;;;;;;;5.35;2.00;;;21.40;47.70;;;;;;6270737;28;20476;-82
2021/09/28 14:09:54;;;;;;;3.80;1.77;;;21.50;49.40;;;;;;6270728;28;20470;-82
2021/09/28 14:12:56;;;;;;;4.32;1.80;;;21.80;48.40;;;;;;6270720;28;20789;-82
2021/09/28 14:15:58;;;;;;;3.08;1.77;;;21.80;48.50;;;;;;6271598;28;20527;-82
2021/09/28 14:19:00;;;;;;;6.57;1.88;;;21.70;48.30;;;;;;6277519;28;20416;-84
2021/09/28 14:22:04;;;;;;;3.20;1.85;;;21.70;49.20;;;;;;6295656;28;20895;-83
2021/09/28 14:25:07;;;;;;;5.10;2.33;;;21.70;48.50;;;;;;6298895;28;20457;-83
2021/09/28 14:28:09;;;;;;;4.85;2.22;;;21.60;48.20;;;;;;6277710;28;20510;-82
2021/09/28 14:31:12;;;;;;;4.85;1.67;;;21.70;49.60;;;;;;6277967;28;20467;-82
2021/09/28 14:34:14;;;;;;;4.78;1.73;;;21.90;48.30;;;;;;6279334;28;20413;-82
2021/09/28 14:37:18;;;;;;;3.35;1.55;;;21.90;47.50;;;;;;6284973;28;20499;-83
2021/09/28 14:40:20;;;;;;;4.67;2.07;;;21.80;48.10;;;;;;6287215;28;20433;-83
2021/09/28 14:43:22;;;;;;;3.15;1.63;;;21.80;47.50;;;;;;6301116;28;20907;-83
2021/09/28 14:46:24;;;;;;;3.28;1.67;;;21.70;49.20;;;;;;6280681;28;20471;-83
2021/09/28 14:49:26;;;;;;;2.67;1.60;;;21.60;48.30;;;;;;6281249;28;20409;-83
2021/09/28 14:52:29;;;;;;;4.15;1.83;;;21.70;47.80;;;;;;6280036;28;20433;-83
2021/09/28 14:55:31;;;;;;;3.28;1.77;;;21.70;46.70;;;;;;6286166;28;20987;-83
2021/09/28 14:58:33;;;;;;;2.72;1.50;;;21.50;47.90;;;;;;6276496;28;20933;-82
2021/09/28 15:01:35;;;;;;;3.55;1.77;;;21.40;47.10;;;;;;6280361;28;20421;-83
2021/09/28 15:04:37;;;;;;;3.45;1.80;;;21.30;47.30;;;;;;6276828;28;20468;-82
2021/09/28 15:07:40;;;;;;;4.53;1.53;;;21.10;48.30;;;;;;6275350;28;20464;-82
2021/09/28 15:10:42;;;;;;;3.63;2.10;;;21.10;47.70;;;;;;6277321;28;21021;-82
2021/09/28 15:13:44;;;;;;;2.80;1.88;;;21.00;48.30;;;;;;6277278;28;20492;-82
2021/09/28 15:16:46;;;;;;;5.22;1.98;;;20.90;48.20;;;;;;6278676;28;20522;-83
2021/09/28 15:19:47;;;;;;;3.40;1.58;;;20.80;48.60;;;;;;6278145;28;20472;-82
2021/09/28 15:22:51;;;;;;;3.28;1.75;;;20.60;48.40;;;;;;6275805;28;20961;-84
2021/09/28 15:25:52;;;;;;;2.80;1.30;;;20.40;49.50;;;;;;6276155;28;20497;-82
2021/09/28 15:28:55;;;;;;;3.58;1.58;;;20.30;50.20;;;;;;6275613;28;20511;-82
2021/09/28 15:32:00;;;;;;;5.35;2.10;;;20.30;50.90;;;;;;6276379;28;20437;-83
2021/09/28 15:35:02;;;;;;;2.25;1.75;;;20.30;50.70;;;;;;6276604;28;20421;-82
2021/09/28 15:38:05;;;;;;;5.57;2.50;;;20.20;49.60;;;;;;6266788;28;20482;-83
2021/09/28 15:41:07;;;;;;;5.72;2.00;;;20.10;54.20;;;;;;6255388;28;20498;-82
2021/09/28 15:44:09;;;;;;;4.80;2.17;;;20.10;51.90;;;;;;6255749;28;21017;-82
2021/09/28 15:47:12;;;;;;;3.88;1.90;;;20.10;52.70;;;;;;6251960;28;21002;-81
2021/09/28 15:50:14;;;;;;;3.97;2.43;;;20.10;57.90;;;;;;6254565;28;20431;-83
2021/09/28 15:53:17;;;;;;;4.72;3.05;;;20.10;51.40;;;;;;6255232;28;20415;-82
2021/09/28 15:56:19;;;;;;;4.82;2.60;;;20.10;53.40;;;;;;6271194;28;20929;-82